createdAt,value
2023-05-10T00:00:24.836Z,44.67
2023-05-10T00:03:14.514Z,44.73
2023-05-10T00:05:46.650Z,44.82
2023-05-10T00:08:18.642Z,45.10
2023-05-10T00:10:51.397Z,45.15
2023-05-10T00:13:24.019Z,45.08
2023-05-10T00:15:56.274Z,45.31
2023-05-10T00:18:28.629Z,45.26
2023-05-10T00:21:00.871Z,45.35
2023-05-10T00:23:33.179Z,45.36
2023-05-10T00:26:05.906Z,45.50
2023-05-10T00:28:38.504Z,45.62
2023-05-10T00:31:10.935Z,45.55
2023-05-10T00:33:43.202Z,45.57
2023-05-10T00:36:15.478Z,45.54
2023-05-10T00:38:47.722Z,45.73
2023-05-10T00:41:20.027Z,45.72
2023-05-10T00:43:52.545Z,45.73
2023-05-10T00:46:25.612Z,46.01
2023-05-10T00:48:58.177Z,46.24
2023-05-10T00:51:30.778Z,46.01
2023-05-10T00:54:03.174Z,46.05
2023-05-10T00:56:35.701Z,46.10
2023-05-10T00:59:08.218Z,45.97
2023-05-10T01:01:41.769Z,46.41
2023-05-10T01:04:14.905Z,46.16
2023-05-10T01:06:47.688Z,46.37
2023-05-10T01:09:20.157Z,46.28
2023-05-10T01:11:52.962Z,46.28
2023-05-10T01:14:25.383Z,46.28
2023-05-10T01:16:58.054Z,46.34
2023-05-10T01:19:32.219Z,46.49
2023-05-10T01:22:16.384Z,46.32
2023-05-10T01:25:21.691Z,46.76
2023-05-10T01:28:19.706Z,46.78
2023-05-10T01:31:12.825Z,46.90
2023-05-10T01:33:54.361Z,46.55
2023-05-10T01:36:33.310Z,47.12
2023-05-10T01:39:13.866Z,46.96
2023-05-10T01:41:53.354Z,47.19
2023-05-10T01:44:31.716Z,46.90
2023-05-10T01:47:09.728Z,47.04
2023-05-10T01:49:48.420Z,46.93
2023-05-10T01:52:29.046Z,47.07
2023-05-10T01:55:04.827Z,47.23
2023-05-10T01:57:40.542Z,47.31
2023-05-10T02:00:16.336Z,47.14
2023-05-10T02:02:51.257Z,47.03
2023-05-10T02:05:24.937Z,47.75
2023-05-10T02:07:58.737Z,47.44
2023-05-10T02:10:31.459Z,47.63
2023-05-10T02:13:05.301Z,47.64
2023-05-10T02:15:39.573Z,47.59
2023-05-10T02:18:13.838Z,47.59
2023-05-10T02:20:47.672Z,47.72
2023-05-10T02:23:22.319Z,47.80
2023-05-10T02:25:56.880Z,48.20
2023-05-10T02:28:31.475Z,48.09
2023-05-10T02:31:04.441Z,48.20
2023-05-10T02:33:37.810Z,48.32
2023-05-10T02:36:11.943Z,48.28
2023-05-10T02:38:45.713Z,48.37
2023-05-10T02:41:18.616Z,48.30
2023-05-10T02:43:51.427Z,48.46
2023-05-10T02:46:23.823Z,48.53
2023-05-10T02:48:56.308Z,48.49
2023-05-10T02:51:34.769Z,48.53
2023-05-10T02:54:13.144Z,48.41
2023-05-10T02:56:53.509Z,48.53
2023-05-10T02:59:26.385Z,48.66
2023-05-10T03:01:59.019Z,48.56
2023-05-10T03:04:31.812Z,48.76
2023-05-10T03:07:04.443Z,48.61
2023-05-10T03:09:37.113Z,48.44
2023-05-10T03:12:17.962Z,48.86
2023-05-10T03:15:03.026Z,48.81
2023-05-10T03:17:54.215Z,49.14
2023-05-10T03:20:32.502Z,49.00
2023-05-10T03:23:21.354Z,48.96
2023-05-10T03:25:54.531Z,48.99
2023-05-10T03:28:29.483Z,49.19
2023-05-10T03:31:03.203Z,49.07
2023-05-10T03:33:36.028Z,49.37
2023-05-10T03:36:09.364Z,49.32
2023-05-10T03:38:42.494Z,49.10
2023-05-10T03:41:15.129Z,49.43
2023-05-10T03:43:47.561Z,49.45
2023-05-10T03:46:20.026Z,49.27
2023-05-10T03:48:52.351Z,49.59
2023-05-10T03:51:26.416Z,49.38
2023-05-10T03:53:58.858Z,49.69
2023-05-10T03:56:31.556Z,49.96
2023-05-10T03:59:08.291Z,50.01
2023-05-10T04:01:40.714Z,50.06
2023-05-10T04:04:15.621Z,50.03
2023-05-10T04:06:48.242Z,50.01
2023-05-10T04:09:21.154Z,50.14
2023-05-10T04:11:53.630Z,49.76
2023-05-10T04:14:25.989Z,50.36
2023-05-10T04:16:58.514Z,50.33
2023-05-10T04:19:34.181Z,49.91
2023-05-10T04:22:08.192Z,49.92
2023-05-10T04:24:40.405Z,49.95
2023-05-10T04:27:12.862Z,50.00
2023-05-10T04:29:45.484Z,50.05
2023-05-10T04:32:18.393Z,49.83
2023-05-10T04:34:52.137Z,50.10
2023-05-10T04:37:25.117Z,50.72
2023-05-10T04:39:57.483Z,50.46
2023-05-10T04:42:29.862Z,50.61
2023-05-10T04:45:02.657Z,50.56
2023-05-10T04:47:35.468Z,50.81
2023-05-10T04:50:09.354Z,50.20
2023-05-10T04:52:41.390Z,50.19
2023-05-10T04:55:14.752Z,50.36
2023-05-10T04:57:47.488Z,50.61
2023-05-10T05:00:20.881Z,50.63
2023-05-10T05:02:53.136Z,50.90
2023-05-10T05:05:25.875Z,50.51
2023-05-10T05:07:58.566Z,50.39
2023-05-10T05:10:31.293Z,50.32
2023-05-10T05:13:03.558Z,50.64
2023-05-10T05:15:36.094Z,50.34
2023-05-10T05:18:08.767Z,50.67
2023-05-10T05:20:41.572Z,51.04
2023-05-10T05:23:14.197Z,50.77
2023-05-10T05:25:46.400Z,50.90
2023-05-10T05:28:18.949Z,51.10
2023-05-10T05:30:51.394Z,50.73
2023-05-10T05:33:24.080Z,50.88
2023-05-10T05:35:56.606Z,51.10
2023-05-10T05:38:30.303Z,50.80
2023-05-10T05:41:03.101Z,50.80
2023-05-10T05:43:38.056Z,50.79
2023-05-10T05:46:10.622Z,50.80
2023-05-10T05:48:43.012Z,51.03
2023-05-10T05:51:15.195Z,50.72
2023-05-10T05:53:47.682Z,50.51
2023-05-10T05:56:25.221Z,50.12
2023-05-10T05:58:57.446Z,49.79
2023-05-10T06:01:29.645Z,50.00
2023-05-10T06:04:01.811Z,49.63
2023-05-10T06:06:34.379Z,49.59
2023-05-10T06:09:07.086Z,50.05
2023-05-10T06:11:39.920Z,49.89
2023-05-10T06:14:12.218Z,49.80
2023-05-10T06:16:44.366Z,50.09
2023-05-10T06:19:16.502Z,49.88
2023-05-10T06:21:48.625Z,48.65
2023-05-10T06:24:21.032Z,48.57
2023-05-10T06:26:53.172Z,48.15
2023-05-10T06:29:25.317Z,48.47
2023-05-10T06:31:57.529Z,48.78
2023-05-10T06:34:29.855Z,49.36
2023-05-10T06:37:02.346Z,47.97
2023-05-10T06:39:34.802Z,48.43
2023-05-10T06:42:07.259Z,48.95
2023-05-10T06:44:39.617Z,48.00
2023-05-10T06:47:11.722Z,47.65
2023-05-10T06:49:43.922Z,47.33
2023-05-10T06:52:15.962Z,47.66
2023-05-10T06:54:47.953Z,47.43
2023-05-10T06:57:31.373Z,45.98
2023-05-10T07:00:06.261Z,45.87
2023-05-10T07:02:38.443Z,45.91
2023-05-10T07:05:11.843Z,45.57
2023-05-10T07:07:44.757Z,46.06
2023-05-10T07:10:17.286Z,45.94
2023-05-10T07:12:49.432Z,45.62
2023-05-10T07:15:22.215Z,45.61
2023-05-10T07:17:54.470Z,45.74
2023-05-10T07:20:26.833Z,46.19
2023-05-10T07:22:59.061Z,45.58
2023-05-10T07:25:31.418Z,44.76
2023-05-10T07:28:03.582Z,44.42
2023-05-10T07:30:35.950Z,45.12
2023-05-10T07:33:08.446Z,44.21
2023-05-10T07:35:41.314Z,44.42
2023-05-10T07:38:13.764Z,44.10
2023-05-10T07:40:46.336Z,44.37
2023-05-10T07:43:18.517Z,44.04
2023-05-10T07:45:51.115Z,44.04
2023-05-10T07:48:23.870Z,43.82
2023-05-10T07:50:56.004Z,43.37
2023-05-10T07:53:29.188Z,43.98
2023-05-10T07:56:21.910Z,43.40
2023-05-10T07:58:54.802Z,43.71
2023-05-10T08:01:27.395Z,43.91
2023-05-10T08:04:02.203Z,43.16
2023-05-10T08:06:33.152Z,43.69
2023-05-10T08:09:06.635Z,43.86
2023-05-10T08:11:39.599Z,43.62
2023-05-10T08:14:11.783Z,43.14
2023-05-10T08:16:44.104Z,42.44
2023-05-10T08:19:20.083Z,42.47
2023-05-10T08:21:52.369Z,43.17
2023-05-10T08:24:24.594Z,42.79
2023-05-10T08:26:57.060Z,42.57
2023-05-10T08:29:32.749Z,43.89
2023-05-10T08:32:08.173Z,42.35
2023-05-10T08:34:40.161Z,43.48
2023-05-10T08:37:14.569Z,43.17
2023-05-10T08:39:48.984Z,43.57
2023-05-10T08:42:24.829Z,42.00
2023-05-10T08:44:59.447Z,42.23
2023-05-10T08:47:31.935Z,41.62
2023-05-10T08:50:04.759Z,40.00
2023-05-10T08:52:42.505Z,40.46
2023-05-10T08:55:15.174Z,39.78
2023-05-10T08:57:47.601Z,40.66
2023-05-10T09:00:21.729Z,40.32
2023-05-10T09:02:54.719Z,39.23
2023-05-10T09:05:27.381Z,39.17
2023-05-10T09:07:59.898Z,38.89
2023-05-10T09:10:34.118Z,38.15
2023-05-10T09:13:07.142Z,38.26
2023-05-10T09:15:39.456Z,37.46
2023-05-10T09:18:11.867Z,37.40
2023-05-10T09:20:44.426Z,36.80
2023-05-10T09:23:16.658Z,36.78
2023-05-10T09:25:49.441Z,36.89
2023-05-10T09:28:21.451Z,36.37
2023-05-10T09:30:58.024Z,36.45
2023-05-10T09:33:30.225Z,35.97
2023-05-10T09:36:10.462Z,36.04
2023-05-10T09:38:50.851Z,35.94
2023-05-10T09:41:27.501Z,35.10
2023-05-10T09:44:00.324Z,35.24
2023-05-10T09:46:37.055Z,34.93
2023-05-10T09:49:09.356Z,35.52
2023-05-10T09:51:41.309Z,34.55
2023-05-10T09:54:15.848Z,34.26
2023-05-10T09:56:48.172Z,34.16
2023-05-10T09:59:20.506Z,33.99
2023-05-10T10:01:54.979Z,33.89
2023-05-10T10:04:27.788Z,33.92
2023-05-10T10:07:07.345Z,34.08
2023-05-10T10:09:40.727Z,34.24
2023-05-10T10:12:12.968Z,34.19
2023-05-10T10:14:45.562Z,33.87
2023-05-10T10:17:18.463Z,33.49
2023-05-10T10:19:52.282Z,33.44
2023-05-10T10:22:24.424Z,34.39
2023-05-10T10:24:57.760Z,33.84
2023-05-10T10:27:40.483Z,33.79
2023-05-10T10:30:22.803Z,33.46
2023-05-10T10:33:27.118Z,33.55
2023-05-10T10:36:03.659Z,33.26
2023-05-10T10:39:01.605Z,33.59
2023-05-10T10:41:36.771Z,33.37
2023-05-10T10:44:27.127Z,33.17
2023-05-10T10:47:09.712Z,33.67
2023-05-10T10:49:54.745Z,33.93
2023-05-10T10:52:30.276Z,33.89
2023-05-10T10:55:06.218Z,33.72
2023-05-10T10:57:48.133Z,33.17
2023-05-10T11:00:29.215Z,34.28
2023-05-10T11:03:07.653Z,33.66
2023-05-10T11:05:44.760Z,32.75
2023-05-10T11:08:19.822Z,33.33
2023-05-10T11:10:54.236Z,33.19
2023-05-10T11:13:33.695Z,34.32
2023-05-10T11:16:17.258Z,33.16
2023-05-10T11:19:03.839Z,33.01
2023-05-10T11:21:46.975Z,32.74
2023-05-10T11:24:20.215Z,32.76
2023-05-10T11:26:53.630Z,32.06
2023-05-10T11:29:27.296Z,32.60
2023-05-10T11:32:01.187Z,33.37
2023-05-10T11:34:34.791Z,32.85
2023-05-10T11:37:07.084Z,32.07
2023-05-10T11:39:39.492Z,32.91
2023-05-10T11:42:12.266Z,32.58
2023-05-10T11:44:46.784Z,32.23
2023-05-10T11:47:19.056Z,32.20
2023-05-10T11:49:53.786Z,32.68
2023-05-10T11:52:26.245Z,31.97
2023-05-10T11:54:59.702Z,31.89
2023-05-10T11:57:32.353Z,32.35
2023-05-10T12:00:04.924Z,32.65
2023-05-10T12:02:40.435Z,33.46
2023-05-10T12:05:13.799Z,32.98
2023-05-10T12:07:45.890Z,31.25
2023-05-10T12:10:19.217Z,30.86
2023-05-10T12:12:53.967Z,31.40
2023-05-10T12:15:28.588Z,31.75
2023-05-10T12:18:01.002Z,33.35
2023-05-10T12:20:33.810Z,31.70
2023-05-10T12:23:06.687Z,31.96
2023-05-10T12:25:41.045Z,31.58
2023-05-10T12:28:13.294Z,32.64
2023-05-10T12:30:46.587Z,32.38
2023-05-10T12:33:19.563Z,31.85
2023-05-10T12:35:53.465Z,31.66
2023-05-10T12:38:34.842Z,31.64
2023-05-10T12:41:08.976Z,31.35
2023-05-10T12:43:41.969Z,31.87
2023-05-10T12:46:15.773Z,32.45
2023-05-10T12:48:57.524Z,32.02
2023-05-10T12:51:36.049Z,32.30
2023-05-10T12:54:08.661Z,32.14
2023-05-10T12:56:41.941Z,31.97
2023-05-10T12:59:14.202Z,31.34
2023-05-10T13:01:46.498Z,31.45
2023-05-10T13:04:19.049Z,31.93
2023-05-10T13:06:51.400Z,31.67
2023-05-10T13:09:23.849Z,31.89
2023-05-10T13:11:56.422Z,31.79
2023-05-10T13:14:28.721Z,31.57
2023-05-10T13:17:00.948Z,32.10
2023-05-10T13:19:33.371Z,31.90
2023-05-10T13:22:05.843Z,31.83
2023-05-10T13:24:38.119Z,31.56
2023-05-10T13:27:10.323Z,32.10
2023-05-10T13:29:44.370Z,31.37
2023-05-10T13:32:15.584Z,31.46
2023-05-10T13:34:47.753Z,31.59
2023-05-10T13:37:20.364Z,31.21
2023-05-10T13:39:52.821Z,31.09
2023-05-10T13:42:25.703Z,31.69
2023-05-10T13:44:58.072Z,31.70
2023-05-10T13:47:30.298Z,31.45
2023-05-10T13:50:02.499Z,31.15
2023-05-10T13:52:35.334Z,31.22
2023-05-10T13:55:09.892Z,30.85
2023-05-10T13:57:43.841Z,31.31
2023-05-10T14:00:17.569Z,31.32
2023-05-10T14:02:49.914Z,31.76
2023-05-10T14:05:25.942Z,31.52
2023-05-10T14:07:58.438Z,31.42
2023-05-10T14:10:31.089Z,31.69
2023-05-10T14:13:04.314Z,31.98
2023-05-10T14:15:36.461Z,31.78
2023-05-10T14:18:08.800Z,31.94
2023-05-10T14:20:41.251Z,31.87
2023-05-10T14:23:13.853Z,31.89
2023-05-10T14:25:46.165Z,32.18
2023-05-10T14:28:18.775Z,32.72
2023-05-10T14:30:51.286Z,32.85
2023-05-10T14:33:23.467Z,32.97
2023-05-10T14:35:57.583Z,33.34
2023-05-10T14:38:29.750Z,33.03
2023-05-10T14:41:02.300Z,32.93
2023-05-10T14:43:34.685Z,32.73
2023-05-10T14:46:06.906Z,33.19
2023-05-10T14:48:39.057Z,33.33
2023-05-10T14:51:12.115Z,32.87
2023-05-10T14:53:44.601Z,32.80
2023-05-10T14:56:16.759Z,32.94
2023-05-10T14:58:49.046Z,33.33
2023-05-10T15:01:21.247Z,33.59
2023-05-10T15:03:54.275Z,33.47
2023-05-10T15:06:34.730Z,33.85
2023-05-10T15:09:07.216Z,34.17
2023-05-10T15:11:39.547Z,34.15
2023-05-10T15:14:11.810Z,33.92
2023-05-10T15:16:43.784Z,34.22
2023-05-10T15:19:16.218Z,33.93
2023-05-10T15:21:48.738Z,33.95
2023-05-10T15:24:21.207Z,34.20
2023-05-10T15:26:53.376Z,34.41
2023-05-10T15:29:25.712Z,34.36
2023-05-10T15:31:58.170Z,33.93
2023-05-10T15:34:32.247Z,34.11
2023-05-10T15:37:05.714Z,34.65
2023-05-10T15:39:37.956Z,34.30
2023-05-10T15:42:10.259Z,34.36
2023-05-10T15:44:42.439Z,34.97
2023-05-10T15:47:14.496Z,35.49
2023-05-10T15:49:46.702Z,35.25
2023-05-10T15:52:21.171Z,35.93
2023-05-10T15:54:53.742Z,34.71
2023-05-10T15:57:25.971Z,34.61
2023-05-10T15:59:58.329Z,34.55
2023-05-10T16:02:31.059Z,35.27
2023-05-10T16:05:03.685Z,34.98
2023-05-10T16:07:36.077Z,35.12
2023-05-10T16:10:10.983Z,34.83
2023-05-10T16:12:43.232Z,34.89
2023-05-10T16:15:16.044Z,34.89
2023-05-10T16:17:48.489Z,34.62
2023-05-10T16:20:21.638Z,34.49
2023-05-10T16:22:54.100Z,34.59
2023-05-10T16:25:26.666Z,34.55
2023-05-10T16:27:58.791Z,34.90
2023-05-10T16:30:30.938Z,34.98
2023-05-10T16:33:05.286Z,35.18
2023-05-10T16:35:37.470Z,35.23
2023-05-10T16:38:09.731Z,34.68
2023-05-10T16:40:41.852Z,34.62
2023-05-10T16:43:14.260Z,34.66
2023-05-10T16:45:46.543Z,35.18
2023-05-10T16:48:18.860Z,35.29
2023-05-10T16:50:51.042Z,35.37
2023-05-10T16:53:23.070Z,35.29
2023-05-10T16:55:55.554Z,35.44
2023-05-10T16:58:27.969Z,35.64
2023-05-10T17:01:00.463Z,35.79
2023-05-10T17:03:33.632Z,35.91
2023-05-10T17:06:08.294Z,35.68
2023-05-10T17:08:40.568Z,36.03
2023-05-10T17:11:15.168Z,35.97
2023-05-10T17:13:47.330Z,35.64
2023-05-10T17:16:20.997Z,35.53
2023-05-10T17:18:53.383Z,35.39
2023-05-10T17:21:25.657Z,34.66
2023-05-10T17:23:58.025Z,34.81
2023-05-10T17:26:30.766Z,35.57
2023-05-10T17:29:03.094Z,35.42
2023-05-10T17:31:35.570Z,34.95
2023-05-10T17:34:07.769Z,35.89
2023-05-10T17:36:40.060Z,35.33
2023-05-10T17:39:15.697Z,34.67
2023-05-10T17:41:47.822Z,35.06
2023-05-10T17:44:19.893Z,34.93
2023-05-10T17:46:52.907Z,35.06
2023-05-10T17:49:25.302Z,34.98
2023-05-10T17:51:57.303Z,35.44
2023-05-10T17:54:29.825Z,34.97
2023-05-10T17:57:03.708Z,35.36
2023-05-10T17:59:37.425Z,35.73
2023-05-10T18:02:09.849Z,36.25
2023-05-10T18:04:43.614Z,36.57
2023-05-10T18:07:17.159Z,36.90
2023-05-10T18:09:49.187Z,37.24
2023-05-10T18:12:21.732Z,37.70
2023-05-10T18:14:54.318Z,37.47
2023-05-10T18:17:26.715Z,37.47
2023-05-10T18:19:59.064Z,37.68
2023-05-10T18:22:32.327Z,37.98
2023-05-10T18:25:04.737Z,38.52
2023-05-10T18:27:38.794Z,38.78
2023-05-10T18:30:12.812Z,38.90
2023-05-10T18:32:45.032Z,38.90
2023-05-10T18:35:17.587Z,39.94
2023-05-10T18:37:49.831Z,40.66
2023-05-10T18:40:22.445Z,40.85
2023-05-10T18:42:54.566Z,41.02
2023-05-10T18:45:26.789Z,41.86
2023-05-10T18:47:59.195Z,42.07
2023-05-10T18:50:31.552Z,42.12
2023-05-10T18:53:04.445Z,42.17
2023-05-10T18:55:44.778Z,42.66
2023-05-10T18:58:17.414Z,42.91
2023-05-10T19:00:49.747Z,42.16
2023-05-10T19:03:22.609Z,41.97
2023-05-10T19:05:54.683Z,42.01
2023-05-10T19:08:26.993Z,41.77
2023-05-10T19:10:59.176Z,41.88
2023-05-10T19:13:31.297Z,41.36
2023-05-10T19:16:15.995Z,41.52
2023-05-10T19:18:48.974Z,41.21
2023-05-10T19:21:24.349Z,41.32
2023-05-10T19:23:58.956Z,41.27
2023-05-10T19:26:31.576Z,41.57
2023-05-10T19:29:04.136Z,41.27
2023-05-10T19:31:36.432Z,41.32
2023-05-10T19:34:08.836Z,41.81
2023-05-10T19:36:40.867Z,41.87
2023-05-10T19:39:13.329Z,41.55
2023-05-10T19:41:45.644Z,41.46
2023-05-10T19:44:19.013Z,41.70
2023-05-10T19:46:51.421Z,41.64
2023-05-10T19:49:23.723Z,41.75
2023-05-10T19:51:56.087Z,41.38
2023-05-10T19:54:28.461Z,41.35
2023-05-10T19:57:01.071Z,40.93
2023-05-10T19:59:33.543Z,41.12
2023-05-10T20:02:06.108Z,41.22
2023-05-10T20:04:38.256Z,41.16
2023-05-10T20:07:12.387Z,41.22
2023-05-10T20:09:44.877Z,41.50
2023-05-10T20:12:18.100Z,41.18
2023-05-10T20:14:50.532Z,41.09
2023-05-10T20:17:22.771Z,41.15
2023-05-10T20:19:55.224Z,41.00
2023-05-10T20:22:27.390Z,41.33
2023-05-10T20:24:59.783Z,41.06
2023-05-10T20:27:31.771Z,40.74
2023-05-10T20:30:05.066Z,40.83
2023-05-10T20:32:38.043Z,40.82
2023-05-10T20:35:11.407Z,40.82
2023-05-10T20:37:43.600Z,40.75
2023-05-10T20:40:16.358Z,40.68
2023-05-10T20:42:49.606Z,40.79
2023-05-10T20:45:22.456Z,40.71
2023-05-10T20:47:54.635Z,40.91
2023-05-10T20:50:26.902Z,41.08
2023-05-10T20:53:00.585Z,40.98
2023-05-10T20:55:32.810Z,41.57
2023-05-10T20:58:05.251Z,41.38
2023-05-10T21:00:37.904Z,41.92
2023-05-10T21:03:10.145Z,41.91
2023-05-10T21:05:42.840Z,42.20
2023-05-10T21:08:15.068Z,41.73
2023-05-10T21:10:47.539Z,42.08
2023-05-10T21:13:19.927Z,42.40
2023-05-10T21:15:52.316Z,42.71
2023-05-10T21:18:24.646Z,42.78
2023-05-10T21:20:56.920Z,42.81
2023-05-10T21:23:29.014Z,42.45
2023-05-10T21:26:03.265Z,42.58
2023-05-10T21:28:35.552Z,42.98
2023-05-10T21:31:08.535Z,42.36
2023-05-10T21:33:41.035Z,42.82
2023-05-10T21:36:13.307Z,43.20
2023-05-10T21:38:45.564Z,43.06
2023-05-10T21:41:17.990Z,42.86
2023-05-10T21:43:50.172Z,43.01
2023-05-10T21:46:22.407Z,43.63
2023-05-10T21:48:54.858Z,43.30
2023-05-10T21:51:27.191Z,43.40
2023-05-10T21:53:59.408Z,43.47
2023-05-10T21:56:31.773Z,43.33
2023-05-10T21:59:04.491Z,43.91
2023-05-10T22:01:37.248Z,44.12
2023-05-10T22:04:09.614Z,44.31
2023-05-10T22:06:41.801Z,44.38
2023-05-10T22:09:13.972Z,44.73
2023-05-10T22:11:45.988Z,44.55
2023-05-10T22:14:18.186Z,44.85
2023-05-10T22:16:50.552Z,44.93
2023-05-10T22:19:23.047Z,44.98
2023-05-10T22:21:55.550Z,44.81
2023-05-10T22:24:27.636Z,45.26
2023-05-10T22:27:00.162Z,45.03
2023-05-10T22:29:32.833Z,44.97
2023-05-10T22:32:06.515Z,44.60
2023-05-10T22:34:38.871Z,44.99
2023-05-10T22:37:11.933Z,45.08
2023-05-10T22:39:43.917Z,44.94
2023-05-10T22:42:16.340Z,45.28
2023-05-10T22:44:48.701Z,45.17
2023-05-10T22:47:21.087Z,45.18
2023-05-10T22:49:53.070Z,45.20
2023-05-10T22:52:25.321Z,45.45
2023-05-10T22:54:57.714Z,45.63
2023-05-10T22:57:30.060Z,45.48
2023-05-10T23:00:02.361Z,45.76
2023-05-10T23:02:35.533Z,45.62
2023-05-10T23:05:09.777Z,45.70
2023-05-10T23:07:42.074Z,45.83
2023-05-10T23:10:14.686Z,45.47
2023-05-10T23:12:47.074Z,45.53
2023-05-10T23:15:19.401Z,46.03
2023-05-10T23:17:51.900Z,46.05
2023-05-10T23:20:24.364Z,45.91
2023-05-10T23:22:56.819Z,45.83
2023-05-10T23:25:29.112Z,45.98
2023-05-10T23:28:01.357Z,46.22
2023-05-10T23:30:34.637Z,46.15
2023-05-10T23:33:08.512Z,46.18
2023-05-10T23:35:40.742Z,46.58
2023-05-10T23:38:12.910Z,46.11
2023-05-10T23:40:48.593Z,46.49
2023-05-10T23:43:21.808Z,46.61
2023-05-10T23:45:58.037Z,46.51
2023-05-10T23:48:30.278Z,46.52
2023-05-10T23:51:02.568Z,46.76
2023-05-10T23:53:34.806Z,46.65
2023-05-10T23:56:07.507Z,46.52
2023-05-10T23:58:39.638Z,46.27
